createdAt,value
2018-04-30T00:01:30.146Z,97.60
2018-04-30T00:03:56.271Z,97.70
2018-04-30T00:06:22.394Z,97.90
2018-04-30T00:08:48.521Z,98.00
2018-04-30T00:11:14.684Z,97.80
2018-04-30T00:13:40.773Z,97.70
2018-04-30T00:16:06.913Z,97.70
2018-04-30T00:18:33.058Z,97.90
2018-04-30T00:20:59.189Z,97.90
2018-04-30T00:23:25.344Z,97.80
2018-04-30T00:25:51.477Z,97.90
2018-04-30T00:28:17.574Z,98.00
2018-04-30T00:30:43.692Z,98.00
2018-04-30T00:33:09.789Z,98.10
2018-04-30T00:35:35.897Z,98.30
2018-04-30T00:38:01.989Z,98.40
2018-04-30T00:40:28.829Z,98.40
2018-04-30T00:42:55.884Z,98.70
2018-04-30T00:45:22.726Z,98.60
2018-04-30T00:47:49.604Z,98.70
2018-04-30T00:50:15.789Z,98.70
2018-04-30T00:52:42.657Z,98.60
2018-04-30T00:55:08.769Z,98.60
2018-04-30T00:57:35.655Z,98.30
2018-04-30T01:00:01.796Z,98.60
2018-04-30T01:02:27.941Z,98.30
2018-04-30T01:04:54.069Z,98.40
2018-04-30T01:07:20.192Z,98.40
2018-04-30T01:09:46.295Z,98.40
2018-04-30T01:12:12.413Z,98.60
2018-04-30T01:14:38.518Z,98.70
2018-04-30T01:17:04.630Z,98.70
2018-04-30T01:19:31.491Z,98.80
2018-04-30T01:21:57.605Z,99.10
2018-04-30T01:24:23.739Z,98.70
2018-04-30T01:26:49.857Z,98.60
2018-04-30T01:29:16.728Z,98.60
2018-04-30T01:31:44.435Z,98.60
2018-04-30T01:34:14.126Z,98.60
2018-04-30T01:36:41.995Z,98.60
2018-04-30T01:39:09.011Z,98.40
2018-04-30T01:41:36.907Z,98.40
2018-04-30T01:44:03.507Z,98.20
2018-04-30T01:46:30.457Z,98.40
2018-04-30T01:49:04.138Z,98.30
2018-04-30T01:51:32.339Z,98.30
2018-04-30T01:54:00.777Z,98.40
2018-04-30T01:56:27.566Z,98.30
2018-04-30T01:58:56.184Z,98.30
2018-04-30T02:01:23.355Z,98.30
2018-04-30T02:03:50.476Z,98.10
2018-04-30T02:06:17.609Z,98.20
2018-04-30T02:08:44.417Z,98.10
2018-04-30T02:11:14.546Z,98.30
2018-04-30T02:13:42.006Z,98.30
2018-04-30T02:16:08.352Z,98.10
2018-04-30T02:18:38.754Z,98.20
2018-04-30T02:21:04.959Z,98.10
2018-04-30T02:23:34.511Z,98.10
2018-04-30T02:26:01.502Z,98.10
2018-04-30T02:28:30.433Z,98.10
2018-04-30T02:30:57.438Z,98.20
2018-04-30T02:33:24.467Z,98.30
2018-04-30T02:35:52.583Z,98.40
2018-04-30T02:38:19.103Z,98.20
2018-04-30T02:40:49.082Z,98.30
2018-04-30T02:43:17.401Z,98.10
2018-04-30T02:45:44.103Z,97.90
2018-04-30T02:48:10.375Z,98.00
2018-04-30T02:50:38.639Z,98.00
2018-04-30T02:53:07.259Z,98.10
2018-04-30T02:55:37.306Z,98.00
2018-04-30T02:58:04.039Z,98.00
2018-04-30T03:00:31.820Z,98.20
2018-04-30T03:03:01.332Z,98.20
2018-04-30T03:05:32.151Z,98.30
2018-04-30T03:08:05.590Z,98.20
2018-04-30T03:10:36.738Z,98.20
2018-04-30T03:13:05.543Z,98.30
2018-04-30T03:15:32.015Z,98.20
2018-04-30T03:17:59.007Z,98.30
2018-04-30T03:20:27.411Z,98.30
2018-04-30T03:23:01.540Z,98.30
2018-04-30T03:25:31.509Z,98.20
2018-04-30T03:28:03.811Z,98.10
2018-04-30T03:30:35.604Z,98.10
2018-04-30T03:33:08.388Z,98.00
2018-04-30T03:35:36.862Z,98.00
2018-04-30T03:38:05.681Z,97.90
2018-04-30T03:40:40.666Z,98.10
2018-04-30T03:43:08.999Z,98.00
2018-04-30T03:45:38.452Z,97.90
2018-04-30T03:48:06.055Z,98.20
2018-04-30T03:50:34.646Z,98.20
2018-04-30T03:53:04.737Z,98.10
2018-04-30T03:55:33.916Z,98.20
2018-04-30T03:58:03.705Z,98.30
2018-04-30T04:00:43.437Z,98.10
2018-04-30T04:03:23.076Z,98.30
2018-04-30T04:06:00.853Z,98.20
2018-04-30T04:08:28.018Z,98.30
2018-04-30T04:10:55.661Z,98.40
2018-04-30T04:13:22.504Z,98.30
2018-04-30T04:15:51.305Z,98.40
2018-04-30T04:18:20.625Z,98.40
2018-04-30T04:20:47.927Z,98.50
2018-04-30T04:23:14.733Z,98.40
2018-04-30T04:25:41.433Z,98.60
2018-04-30T04:28:08.519Z,98.30
2018-04-30T04:30:35.612Z,96.90
2018-04-30T04:33:01.883Z,96.90
2018-04-30T04:35:29.056Z,97.00
2018-04-30T04:37:56.255Z,97.10
2018-04-30T04:40:23.292Z,97.20
2018-04-30T04:42:51.325Z,97.00
2018-04-30T04:45:17.960Z,96.80
2018-04-30T04:47:44.974Z,96.90
2018-04-30T04:50:12.478Z,96.80
2018-04-30T04:52:39.545Z,97.30
2018-04-30T04:55:08.192Z,97.30
2018-04-30T04:57:36.625Z,97.30
2018-04-30T05:00:03.871Z,97.40
2018-04-30T05:02:32.230Z,97.50
2018-04-30T05:05:00.697Z,97.40
2018-04-30T05:07:29.561Z,97.70
2018-04-30T05:09:57.459Z,97.70
2018-04-30T05:12:24.838Z,97.20
2018-04-30T05:14:53.441Z,97.20
2018-04-30T07:20:10.867Z,94.70
2018-04-30T07:22:37.925Z,94.10
2018-04-30T07:25:05.029Z,93.70
2018-04-30T07:27:31.281Z,93.70
2018-04-30T07:29:57.702Z,94.10
2018-04-30T07:35:19.797Z,93.40
2018-04-30T07:37:46.628Z,93.10
2018-04-30T07:40:16.790Z,93.70
2018-04-30T07:42:42.930Z,93.60
2018-04-30T07:45:09.335Z,93.10
2018-04-30T07:47:35.846Z,93.30
2018-04-30T07:50:02.794Z,92.70
2018-04-30T07:52:30.048Z,91.80
2018-04-30T07:55:10.561Z,92.20
2018-04-30T07:57:36.999Z,92.20
2018-04-30T08:00:08.480Z,92.00
2018-04-30T08:02:35.021Z,92.40
2018-04-30T08:05:01.244Z,92.40
2018-04-30T08:07:27.457Z,92.10
2018-04-30T08:09:53.726Z,92.00
2018-04-30T08:12:21.745Z,91.10
2018-04-30T08:14:47.911Z,91.90
2018-04-30T08:17:14.246Z,91.40
2018-04-30T08:19:40.394Z,91.10
2018-04-30T08:22:06.993Z,90.00
2018-04-30T08:24:33.313Z,90.30
2018-04-30T08:26:59.681Z,90.80
2018-04-30T08:29:26.741Z,87.80
2018-04-30T08:31:53.197Z,87.80
2018-04-30T08:34:19.337Z,89.10
2018-04-30T08:36:45.880Z,88.80
2018-04-30T08:39:12.197Z,87.60
2018-04-30T08:41:39.414Z,88.20
2018-04-30T08:44:06.461Z,86.60
2018-04-30T08:46:34.031Z,88.70
2018-04-30T08:49:01.162Z,84.70
2018-04-30T08:51:27.445Z,83.90
2018-04-30T08:53:53.705Z,82.40
2018-04-30T08:56:20.123Z,81.40
2018-04-30T08:58:50.976Z,82.90
2018-04-30T09:01:19.435Z,81.90
2018-04-30T09:03:54.328Z,82.00
2018-04-30T09:09:30.528Z,81.60
2018-04-30T09:12:04.812Z,81.10
2018-04-30T09:14:42.469Z,82.30
2018-04-30T09:17:10.641Z,80.80
2018-04-30T09:19:39.646Z,80.00
2018-04-30T09:22:14.011Z,77.80
2018-04-30T09:27:30.321Z,79.70
2018-04-30T09:29:59.445Z,77.50
2018-04-30T09:32:29.998Z,78.30
2018-04-30T09:37:36.006Z,77.70
2018-04-30T09:40:06.901Z,77.90
2018-04-30T09:42:39.850Z,77.80
2018-04-30T09:45:11.932Z,76.70
2018-04-30T09:47:41.827Z,76.70
2018-04-30T10:14:25.794Z,73.30
2018-04-30T10:19:50.354Z,71.30
2018-04-30T10:22:23.470Z,69.50
2018-04-30T11:21:37.868Z,66.40
2018-04-30T11:24:15.967Z,70.20
2018-04-30T11:26:42.094Z,70.10
2018-04-30T11:29:08.267Z,71.70
2018-04-30T11:31:34.422Z,76.30
2018-04-30T11:34:00.684Z,78.20
2018-04-30T11:36:26.801Z,76.80
2018-04-30T11:38:52.921Z,73.00
2018-04-30T11:41:19.025Z,72.80
2018-04-30T11:43:45.177Z,73.50
2018-04-30T11:46:11.322Z,72.30
2018-04-30T11:48:38.202Z,69.20
2018-04-30T11:51:04.364Z,69.10
2018-04-30T11:53:30.516Z,66.60
2018-04-30T11:55:56.854Z,65.80
2018-04-30T11:58:23.741Z,65.10
2018-04-30T12:00:49.958Z,65.10
2018-04-30T12:03:16.065Z,64.00
2018-04-30T12:05:42.962Z,63.50
2018-04-30T12:08:09.097Z,63.50
2018-04-30T12:10:35.193Z,64.70
2018-04-30T12:13:01.313Z,66.60
2018-04-30T12:15:27.441Z,67.50
2018-04-30T12:17:53.573Z,69.20
2018-04-30T12:20:19.697Z,73.50
2018-04-30T12:22:45.849Z,72.80
2018-04-30T12:25:11.989Z,69.00
2018-04-30T12:27:38.174Z,67.70
2018-04-30T12:30:04.478Z,69.40
2018-04-30T12:32:30.792Z,74.60
2018-04-30T12:34:57.881Z,82.90
2018-04-30T12:37:24.095Z,82.90
2018-04-30T12:39:50.248Z,83.70
2018-04-30T12:42:16.581Z,84.70
2018-04-30T12:44:42.826Z,86.70
2018-04-30T12:47:09.061Z,85.30
2018-04-30T12:49:35.258Z,85.00
2018-04-30T12:52:02.129Z,82.60
2018-04-30T12:54:28.265Z,82.60
2018-04-30T12:56:54.784Z,78.50
2018-04-30T12:59:20.921Z,80.30
2018-04-30T13:01:47.070Z,76.90
2018-04-30T13:04:14.111Z,76.70
2018-04-30T13:06:40.800Z,71.50
2018-04-30T13:09:07.049Z,72.50
2018-04-30T13:11:34.017Z,67.20
2018-04-30T13:14:00.186Z,67.20
2018-04-30T13:16:26.357Z,69.20
2018-04-30T13:18:52.485Z,68.20
2018-04-30T13:21:18.673Z,70.60
2018-04-30T13:23:44.850Z,69.40
2018-04-30T13:26:10.965Z,72.80
2018-04-30T13:28:37.224Z,71.40
2018-04-30T13:31:03.886Z,74.80
2018-04-30T13:36:18.258Z,82.50
2018-04-30T13:38:47.007Z,86.70
2018-04-30T13:41:13.307Z,85.10
2018-04-30T13:43:39.710Z,85.60
2018-04-30T13:46:06.602Z,88.40
2018-04-30T13:48:33.652Z,89.70
2018-04-30T13:51:00.214Z,89.00
2018-04-30T13:53:26.541Z,89.30
2018-04-30T13:55:53.544Z,90.60
2018-04-30T13:58:19.919Z,90.50
2018-04-30T14:00:46.115Z,89.00
2018-04-30T14:03:12.419Z,88.80
2018-04-30T14:05:38.711Z,85.70
2018-04-30T14:08:05.040Z,87.10
2018-04-30T14:10:32.093Z,84.80
2018-04-30T14:12:58.577Z,83.90
2018-04-30T14:15:25.924Z,84.50
2018-04-30T14:17:52.430Z,82.50
2018-04-30T14:20:19.169Z,81.70
2018-04-30T14:22:47.084Z,80.60
2018-04-30T14:25:14.613Z,80.50
2018-04-30T14:27:41.055Z,80.40
2018-04-30T14:30:07.897Z,83.20
2018-04-30T14:32:34.633Z,78.20
2018-04-30T14:35:01.171Z,79.30
2018-04-30T14:37:28.078Z,78.70
2018-04-30T14:39:54.769Z,75.10
2018-04-30T14:42:26.857Z,78.30
2018-04-30T14:44:55.120Z,75.50
2018-04-30T14:47:21.443Z,74.60
2018-04-30T14:49:49.056Z,72.80
2018-04-30T14:52:17.484Z,75.80
2018-04-30T14:54:44.255Z,71.80
2018-04-30T14:57:12.729Z,71.80
2018-04-30T14:59:41.038Z,71.10
2018-04-30T15:02:08.971Z,71.10
2018-04-30T15:04:35.352Z,68.10
2018-04-30T15:07:03.379Z,66.60
2018-04-30T15:09:30.480Z,63.50
2018-04-30T15:11:57.263Z,63.50
2018-04-30T15:14:23.801Z,62.40
2018-04-30T15:16:50.059Z,64.30
2018-04-30T15:19:17.127Z,62.60
2018-04-30T15:21:43.665Z,60.20
2018-04-30T15:24:10.274Z,59.00
2018-04-30T15:26:36.698Z,59.40
2018-04-30T15:29:03.179Z,58.70
2018-04-30T15:31:29.527Z,59.60
2018-04-30T15:33:56.638Z,58.90
2018-04-30T15:36:23.058Z,58.90
2018-04-30T15:38:49.457Z,58.10
2018-04-30T15:41:15.968Z,58.30
2018-04-30T15:43:42.427Z,58.70
2018-04-30T15:46:08.930Z,58.90
2018-04-30T15:48:36.076Z,58.40
2018-04-30T15:51:03.424Z,58.40
2018-04-30T15:53:31.640Z,58.40
2018-04-30T15:55:58.008Z,56.30
2018-04-30T15:58:24.352Z,55.20
2018-04-30T16:00:51.393Z,53.30
2018-04-30T16:03:17.855Z,53.20
2018-04-30T16:05:45.735Z,51.60
2018-04-30T16:08:13.101Z,49.70
2018-04-30T16:10:39.283Z,49.60
2018-04-30T16:13:05.391Z,50.00
2018-04-30T16:15:31.748Z,50.80
2018-04-30T16:17:57.872Z,50.50
2018-04-30T16:20:24.079Z,49.20
2018-04-30T16:22:50.152Z,50.70
2018-04-30T16:25:16.508Z,51.80
2018-04-30T16:27:42.738Z,53.70
2018-04-30T16:30:09.049Z,54.90
2018-04-30T16:32:35.939Z,58.20
2018-04-30T16:35:06.046Z,58.20
2018-04-30T16:37:32.316Z,59.30
2018-04-30T16:39:58.607Z,59.70
2018-04-30T16:42:25.372Z,59.80
2018-04-30T16:44:51.633Z,60.20
2018-04-30T16:47:18.351Z,60.60
2018-04-30T16:49:45.630Z,60.70
2018-04-30T16:52:12.767Z,61.60
2018-04-30T16:54:40.098Z,61.70
2018-04-30T16:57:08.290Z,61.70
2018-04-30T16:59:35.313Z,61.40
2018-04-30T17:02:03.267Z,61.10
2018-04-30T17:04:30.362Z,61.60
2018-04-30T17:06:56.827Z,62.60
2018-04-30T17:09:23.116Z,61.50
2018-04-30T17:11:49.669Z,62.10
2018-04-30T17:14:16.213Z,61.00
2018-04-30T17:16:43.323Z,61.60
2018-04-30T17:19:09.596Z,61.50
2018-04-30T17:21:35.804Z,62.70
2018-04-30T17:24:02.394Z,63.60
2018-04-30T17:26:28.951Z,62.90
2018-04-30T17:28:56.100Z,64.00
2018-04-30T17:31:22.331Z,64.00
2018-04-30T17:33:48.635Z,66.20
2018-04-30T17:36:15.173Z,69.00
2018-04-30T17:38:41.778Z,71.70
2018-04-30T17:41:08.986Z,72.60
2018-04-30T17:43:35.481Z,71.90
2018-04-30T17:46:02.841Z,70.50
2018-04-30T17:48:30.533Z,68.80
2018-04-30T17:50:57.630Z,69.80
2018-04-30T17:53:24.009Z,69.70
2018-04-30T17:55:50.734Z,70.00
2018-04-30T17:58:17.129Z,69.90
2018-04-30T18:00:44.303Z,70.50
2018-04-30T18:05:43.874Z,70.60
2018-04-30T18:08:10.342Z,70.70
2018-04-30T18:10:37.267Z,73.50
2018-04-30T18:13:03.639Z,73.00
2018-04-30T18:15:29.915Z,74.70
2018-04-30T18:17:56.362Z,74.70
2018-04-30T18:20:22.827Z,75.20
2018-04-30T18:22:49.460Z,74.50
2018-04-30T18:25:16.462Z,73.60
2018-04-30T18:27:45.003Z,73.50
2018-04-30T18:30:11.471Z,73.50
2018-04-30T18:32:37.951Z,71.90
2018-04-30T18:35:04.507Z,71.80
2018-04-30T18:37:31.979Z,72.20
2018-04-30T18:39:58.311Z,70.60
2018-04-30T18:42:24.776Z,70.80
2018-04-30T18:44:51.057Z,70.40
2018-04-30T18:47:17.627Z,70.90
2018-04-30T18:49:44.904Z,70.80
2018-04-30T18:52:11.226Z,69.90
2018-04-30T18:54:37.579Z,70.30
2018-04-30T18:57:04.565Z,70.00
2018-04-30T18:59:30.992Z,70.00
2018-04-30T19:01:57.400Z,69.80
2018-04-30T19:04:23.694Z,69.60
2018-04-30T19:06:51.112Z,69.50
2018-04-30T19:09:17.406Z,69.50
2018-04-30T19:11:43.690Z,69.20
2018-04-30T19:14:10.086Z,69.20
2018-04-30T19:16:37.171Z,68.70
2018-04-30T19:19:03.586Z,68.70
2018-04-30T19:21:29.809Z,68.40
2018-04-30T19:23:56.792Z,64.50
2018-04-30T19:26:22.997Z,64.40
2018-04-30T19:28:49.455Z,64.20
2018-04-30T19:31:15.721Z,65.70
2018-04-30T19:33:42.076Z,64.20
2018-04-30T19:36:08.319Z,62.70
2018-04-30T19:38:34.573Z,63.00
2018-04-30T19:41:00.757Z,62.70
2018-04-30T19:43:27.349Z,62.20
2018-04-30T19:45:53.859Z,61.50
2018-04-30T19:48:20.249Z,61.40
2018-04-30T19:50:46.831Z,61.30
2018-04-30T19:53:13.914Z,61.40
2018-04-30T19:55:40.423Z,60.80
2018-04-30T20:03:18.637Z,63.20
2018-04-30T20:05:46.040Z,63.80
2018-04-30T20:08:12.253Z,63.60
2018-04-30T20:10:38.538Z,64.30
2018-04-30T20:15:39.522Z,64.10
2018-04-30T20:18:06.835Z,64.20
2018-04-30T20:20:33.235Z,64.00
2018-04-30T20:23:00.773Z,64.00
2018-04-30T20:25:27.111Z,64.60
2018-04-30T20:27:53.326Z,64.70
2018-04-30T20:30:19.670Z,65.00
2018-04-30T20:32:46.129Z,65.20
2018-04-30T20:35:12.351Z,65.00
2018-04-30T20:37:38.728Z,64.70
2018-04-30T20:40:05.338Z,65.30
2018-04-30T20:42:32.613Z,66.30
2018-04-30T20:44:59.050Z,65.30
2018-04-30T20:47:25.378Z,65.70
2018-04-30T20:49:51.883Z,66.00
2018-04-30T20:52:18.154Z,66.00
2018-04-30T20:54:45.355Z,65.90
2018-04-30T20:57:12.045Z,65.80
2018-04-30T20:59:38.299Z,65.50
2018-04-30T21:02:04.582Z,66.10
2018-04-30T21:04:30.729Z,65.90
2018-04-30T21:06:56.994Z,65.90
2018-04-30T21:09:23.530Z,65.30
2018-04-30T21:11:49.666Z,65.20
2018-04-30T21:14:15.976Z,66.10
2018-04-30T21:16:42.182Z,66.10
2018-04-30T21:19:09.123Z,64.80
2018-04-30T21:21:35.458Z,64.80
2018-04-30T21:24:01.853Z,65.10
2018-04-30T21:26:28.352Z,65.60
2018-04-30T21:28:54.496Z,64.70
2018-04-30T21:31:21.749Z,64.80
2018-04-30T21:33:47.866Z,65.00
2018-04-30T21:36:14.047Z,65.30
2018-04-30T21:38:40.145Z,65.20
2018-04-30T21:41:06.597Z,65.00
2018-04-30T21:43:32.706Z,65.10
2018-04-30T21:45:58.863Z,65.10
2018-04-30T21:48:24.966Z,65.20
2018-04-30T21:50:51.085Z,65.60
2018-04-30T21:53:17.280Z,65.80
2018-04-30T21:55:43.703Z,65.80
2018-04-30T21:58:10.581Z,66.20
2018-04-30T22:00:36.781Z,66.20
2018-04-30T22:03:03.219Z,66.00
2018-04-30T22:05:29.329Z,66.20
2018-04-30T22:07:55.453Z,66.10
2018-04-30T22:10:22.308Z,66.40
2018-04-30T22:12:48.509Z,66.40
2018-04-30T22:15:14.641Z,66.10
2018-04-30T22:17:40.912Z,66.90
2018-04-30T22:20:08.026Z,67.00
2018-04-30T22:22:35.021Z,67.60
2018-04-30T22:25:01.177Z,67.50
2018-04-30T22:27:27.308Z,68.20
2018-04-30T22:29:54.132Z,67.80
2018-04-30T22:32:20.554Z,68.20
2018-04-30T22:34:46.890Z,67.70
2018-04-30T22:37:13.875Z,67.80
2018-04-30T22:39:40.414Z,67.80
2018-04-30T22:42:06.541Z,68.20
2018-04-30T22:44:32.715Z,68.20
2018-04-30T22:46:58.817Z,68.20
2018-04-30T22:49:25.703Z,69.10
2018-04-30T22:51:51.809Z,69.10
2018-04-30T22:54:17.903Z,69.50
2018-04-30T22:56:44.741Z,70.30
2018-04-30T22:59:11.589Z,70.60
2018-04-30T23:01:38.452Z,70.70
2018-04-30T23:04:04.610Z,70.70
2018-04-30T23:06:30.705Z,70.70
2018-04-30T23:08:56.828Z,71.50
2018-04-30T23:11:23.188Z,71.10
2018-04-30T23:13:49.376Z,71.10
2018-04-30T23:16:16.310Z,71.30
2018-04-30T23:18:43.229Z,72.00
2018-04-30T23:21:10.761Z,71.50
2018-04-30T23:23:36.887Z,71.10
2018-04-30T23:26:03.441Z,71.50
2018-04-30T23:28:29.581Z,71.10
2018-04-30T23:30:55.718Z,71.30
2018-04-30T23:33:21.850Z,71.40
2018-04-30T23:35:47.960Z,71.20
2018-04-30T23:38:14.737Z,71.20
2018-04-30T23:40:40.920Z,71.40
2018-04-30T23:43:07.070Z,71.10
2018-04-30T23:45:33.167Z,71.30
2018-04-30T23:47:59.294Z,71.30
2018-04-30T23:50:25.469Z,71.70
2018-04-30T23:52:51.689Z,71.70
2018-04-30T23:55:18.544Z,72.50
2018-04-30T23:57:45.445Z,72.10
